Time;durP1;ratioP1;P1;durP2;ratioP2;P2;SDS_P1;SDS_P2;PMS_P1;PMS_P2;Temp;Humidity;BMP_temperature;BMP_pressure;BME280_temperature;BME280_humidity;BME280_pressure;Samples;Min_cycle;Max_cycle;Signal;HPM_P1;HPM_P2
2021/10/21 00:01:53;;;;;;;19.30;14.60;;;;;;;;;;769402;182;961074;-66
2021/10/21 00:04:19;;;;;;;16.20;12.65;;;;;;;;;;766876;182;917689;-66
2021/10/21 00:06:45;;;;;;;19.20;16.17;;;;;;;;;;776440;182;919484;-65
2021/10/21 00:09:11;;;;;;;26.23;14.27;;;;;;;;;;769854;182;919916;-66
2021/10/21 00:11:37;;;;;;;18.80;15.03;;;;;;;;;;766962;181;919808;-65
2021/10/21 00:14:03;;;;;;;20.57;15.67;;;;;;;;;;776893;182;912200;-66
2021/10/21 00:16:28;;;;;;;23.80;16.27;;;;;;;;;;769760;182;921523;-66
2021/10/21 00:18:54;;;;;;;23.77;17.23;;;;;;;;;;767554;182;934307;-66
2021/10/21 00:21:20;;;;;;;23.50;16.70;;;;;;;;;;771123;182;920277;-65
2021/10/21 00:23:46;;;;;;;22.50;16.10;;;;;;;;;;773887;182;918415;-66
2021/10/21 00:26:12;;;;;;;26.10;19.60;;;;;;;;;;767814;182;919018;-65
2021/10/21 00:28:38;;;;;;;27.40;17.53;;;;;;;;;;768944;182;918157;-66
2021/10/21 00:31:03;;;;;;;23.00;16.40;;;;;;;;;;771538;182;911411;-65
2021/10/21 00:33:29;;;;;;;24.17;17.33;;;;;;;;;;770827;182;925412;-65
2021/10/21 00:35:55;;;;;;;22.67;18.23;;;;;;;;;;767388;182;921045;-66
2021/10/21 00:38:21;;;;;;;26.07;19.27;;;;;;;;;;773673;182;919543;-66
2021/10/21 00:40:47;;;;;;;22.60;18.87;;;;;;;;;;768526;179;922051;-65
2021/10/21 00:43:13;;;;;;;27.70;17.40;;;;;;;;;;772515;182;921586;-67
2021/10/21 00:45:38;;;;;;;24.90;17.47;;;;;;;;;;766988;182;919955;-65
2021/10/21 00:48:04;;;;;;;20.23;15.73;;;;;;;;;;759163;184;2045263;-66
2021/10/21 00:50:31;;;;;;;19.77;15.63;;;;;;;;;;769631;182;919110;-66
2021/10/21 00:52:56;;;;;;;21.50;17.03;;;;;;;;;;771078;182;815212;-66
2021/10/21 00:55:22;;;;;;;26.40;17.77;;;;;;;;;;769952;182;919400;-65
2021/10/21 00:57:48;;;;;;;21.63;16.70;;;;;;;;;;764512;182;918224;-66
2021/10/21 01:00:14;;;;;;;24.07;17.47;;;;;;;;;;763364;182;919421;-67
2021/10/21 01:02:39;;;;;;;26.03;18.93;;;;;;;;;;771357;182;918929;-65
2021/10/21 01:05:06;;;;;;;27.03;17.60;;;;;;;;;;769065;182;923557;-65
2021/10/21 01:07:32;;;;;;;23.17;17.00;;;;;;;;;;763823;181;1123375;-66
2021/10/21 01:09:58;;;;;;;25.67;20.30;;;;;;;;;;773053;181;919276;-65
2021/10/21 01:12:23;;;;;;;25.80;18.20;;;;;;;;;;776344;179;919422;-66
2021/10/21 01:14:49;;;;;;;26.23;18.67;;;;;;;;;;769760;182;919515;-66
2021/10/21 01:17:15;;;;;;;25.40;18.73;;;;;;;;;;765350;182;1023649;-66
2021/10/21 01:19:41;;;;;;;21.03;16.80;;;;;;;;;;772061;182;919351;-66
2021/10/21 01:22:07;;;;;;;23.53;17.27;;;;;;;;;;770288;182;920771;-65
2021/10/21 01:24:33;;;;;;;24.33;16.53;;;;;;;;;;769559;182;919941;-66
2021/10/21 01:26:59;;;;;;;23.60;18.57;;;;;;;;;;773113;182;919961;-65
2021/10/21 01:29:24;;;;;;;21.53;15.60;;;;;;;;;;768535;182;919279;-66
2021/10/21 01:31:50;;;;;;;21.73;16.23;;;;;;;;;;765707;182;920254;-65
2021/10/21 01:34:16;;;;;;;38.80;19.20;;;;;;;;;;774004;182;918786;-65
2021/10/21 01:36:44;;;;;;;21.87;19.13;;;;;;;;;;768394;182;920092;-65
2021/10/21 01:39:08;;;;;;;25.03;18.93;;;;;;;;;;766357;182;919492;-66
2021/10/21 01:41:34;;;;;;;25.20;19.03;;;;;;;;;;768797;182;919394;-65
2021/10/21 01:44:00;;;;;;;24.13;17.43;;;;;;;;;;774564;182;918802;-66
2021/10/21 01:46:25;;;;;;;22.93;17.13;;;;;;;;;;764901;182;957170;-66
2021/10/21 01:48:51;;;;;;;26.23;17.77;;;;;;;;;;762675;182;1021769;-66
2021/10/21 01:51:17;;;;;;;31.43;18.40;;;;;;;;;;775098;182;918729;-66
2021/10/21 01:53:43;;;;;;;22.63;17.93;;;;;;;;;;766880;182;919365;-66
2021/10/21 01:56:09;;;;;;;22.60;18.00;;;;;;;;;;768725;182;920393;-65
2021/10/21 01:58:35;;;;;;;24.57;17.33;;;;;;;;;;772512;182;919264;-65
2021/10/21 02:01:00;;;;;;;26.83;18.13;;;;;;;;;;768145;182;920081;-65
2021/10/21 02:03:26;;;;;;;20.98;16.67;;;;;;;;;;765136;182;919689;-66
2021/10/21 02:05:52;;;;;;;23.47;17.20;;;;;;;;;;764377;182;919239;-65
2021/10/21 02:08:18;;;;;;;25.87;17.80;;;;;;;;;;765819;182;918575;-66
2021/10/21 02:10:44;;;;;;;23.33;17.23;;;;;;;;;;766487;182;920121;-65
2021/10/21 02:13:10;;;;;;;21.60;16.00;;;;;;;;;;767840;182;919848;-65
2021/10/21 02:15:35;;;;;;;23.50;16.20;;;;;;;;;;771543;182;920118;-65
2021/10/21 02:18:01;;;;;;;22.40;16.00;;;;;;;;;;769128;182;939779;-66
2021/10/21 02:20:27;;;;;;;23.12;16.27;;;;;;;;;;768873;180;1022584;-65
2021/10/21 02:22:53;;;;;;;24.87;16.73;;;;;;;;;;777855;181;918774;-65
2021/10/21 02:25:19;;;;;;;21.90;16.73;;;;;;;;;;769106;182;920881;-65
2021/10/21 02:27:45;;;;;;;21.33;15.13;;;;;;;;;;763692;182;920189;-65
2021/10/21 02:30:11;;;;;;;21.27;16.77;;;;;;;;;;775538;182;919421;-65
2021/10/21 02:32:36;;;;;;;19.80;15.00;;;;;;;;;;770945;182;919255;-64
2021/10/21 02:35:03;;;;;;;23.33;16.03;;;;;;;;;;769643;182;920450;-65
2021/10/21 02:37:28;;;;;;;21.87;16.03;;;;;;;;;;769710;182;919770;-65
2021/10/21 02:39:54;;;;;;;21.30;15.40;;;;;;;;;;771054;182;919234;-65
2021/10/21 02:42:20;;;;;;;22.53;15.43;;;;;;;;;;769179;182;919191;-65
2021/10/21 02:44:46;;;;;;;21.83;15.87;;;;;;;;;;763426;182;939339;-65
2021/10/21 02:47:11;;;;;;;24.30;17.70;;;;;;;;;;773441;182;919225;-65
2021/10/21 02:49:37;;;;;;;26.07;19.20;;;;;;;;;;762827;182;918483;-65
2021/10/21 02:52:03;;;;;;;33.40;19.90;;;;;;;;;;769654;182;919820;-66
2021/10/21 02:54:30;;;;;;;25.83;18.33;;;;;;;;;;774876;182;919755;-65
2021/10/21 02:56:55;;;;;;;26.80;18.97;;;;;;;;;;755477;183;920094;-65
2021/10/21 02:59:21;;;;;;;27.27;17.80;;;;;;;;;;768958;182;919182;-64
2021/10/21 03:01:47;;;;;;;23.53;17.43;;;;;;;;;;767928;182;919160;-64
2021/10/21 03:04:13;;;;;;;19.50;15.30;;;;;;;;;;772156;182;919006;-65
2021/10/21 03:06:39;;;;;;;23.40;18.17;;;;;;;;;;763885;182;953495;-65
2021/10/21 03:09:04;;;;;;;23.13;17.90;;;;;;;;;;768629;182;919454;-65
2021/10/21 03:11:30;;;;;;;22.80;16.73;;;;;;;;;;766462;182;919098;-64
2021/10/21 03:13:56;;;;;;;25.83;18.33;;;;;;;;;;763515;182;919034;-66
2021/10/21 03:16:22;;;;;;;26.90;18.73;;;;;;;;;;761509;182;919127;-64
2021/10/21 03:18:48;;;;;;;22.20;16.62;;;;;;;;;;767656;182;919741;-64
2021/10/21 03:21:14;;;;;;;19.70;15.97;;;;;;;;;;766557;182;921861;-65
2021/10/21 03:23:39;;;;;;;23.27;16.60;;;;;;;;;;764257;182;1033497;-65
2021/10/21 03:26:05;;;;;;;23.65;16.65;;;;;;;;;;766817;182;919247;-64
2021/10/21 03:28:31;;;;;;;28.50;18.73;;;;;;;;;;768278;183;919188;-65
2021/10/21 03:30:57;;;;;;;25.30;17.80;;;;;;;;;;767130;181;919372;-65
2021/10/21 03:33:24;;;;;;;25.47;19.27;;;;;;;;;;769173;182;919002;-65
2021/10/21 03:35:50;;;;;;;35.80;24.50;;;;;;;;;;772192;182;919448;-65
2021/10/21 03:38:16;;;;;;;38.93;26.50;;;;;;;;;;760738;182;919880;-65
2021/10/21 03:40:41;;;;;;;34.20;24.93;;;;;;;;;;763125;182;1020697;-65
2021/10/21 03:43:07;;;;;;;30.87;21.17;;;;;;;;;;775241;182;919745;-65
2021/10/21 03:45:33;;;;;;;29.13;22.77;;;;;;;;;;770419;182;920198;-65
2021/10/21 03:47:59;;;;;;;31.63;22.20;;;;;;;;;;765473;182;920485;-66
2021/10/21 03:50:25;;;;;;;28.80;20.37;;;;;;;;;;770122;182;919108;-64
2021/10/21 03:52:51;;;;;;;25.70;18.90;;;;;;;;;;767009;182;927590;-65
2021/10/21 03:55:17;;;;;;;24.50;18.60;;;;;;;;;;767842;182;919340;-65
2021/10/21 03:57:42;;;;;;;27.27;18.70;;;;;;;;;;765722;182;919728;-66
2021/10/21 04:00:09;;;;;;;26.20;18.67;;;;;;;;;;770525;182;919744;-65
2021/10/21 04:02:35;;;;;;;25.03;18.40;;;;;;;;;;767949;182;920926;-65
2021/10/21 04:05:01;;;;;;;28.30;19.37;;;;;;;;;;765962;182;919480;-65
2021/10/21 04:07:27;;;;;;;28.42;18.12;;;;;;;;;;774316;182;918686;-65
2021/10/21 04:09:53;;;;;;;25.27;18.63;;;;;;;;;;766920;182;919187;-66
2021/10/21 04:12:19;;;;;;;25.90;18.93;;;;;;;;;;767169;182;915679;-65
2021/10/21 04:14:45;;;;;;;27.73;19.87;;;;;;;;;;770609;182;916004;-65
2021/10/21 04:17:11;;;;;;;27.23;20.83;;;;;;;;;;768381;182;918079;-65
2021/10/21 04:19:36;;;;;;;27.47;18.80;;;;;;;;;;764999;182;918971;-66
2021/10/21 04:22:02;;;;;;;25.47;18.80;;;;;;;;;;767278;182;917402;-65
2021/10/21 04:24:28;;;;;;;29.17;19.63;;;;;;;;;;774243;182;919101;-64
2021/10/21 04:26:54;;;;;;;28.03;20.00;;;;;;;;;;767303;182;918975;-65
2021/10/21 04:29:20;;;;;;;26.62;19.05;;;;;;;;;;766793;182;1122078;-66
2021/10/21 04:31:46;;;;;;;31.98;19.45;;;;;;;;;;772545;182;919391;-65
2021/10/21 04:34:12;;;;;;;25.10;19.50;;;;;;;;;;767777;182;917406;-65
2021/10/21 04:36:37;;;;;;;29.80;19.40;;;;;;;;;;768295;182;921865;-66
2021/10/21 04:39:03;;;;;;;27.40;20.57;;;;;;;;;;774664;182;919981;-65
2021/10/21 04:41:29;;;;;;;30.90;22.10;;;;;;;;;;770222;182;918908;-65
2021/10/21 04:43:55;;;;;;;28.20;21.00;;;;;;;;;;768170;180;920469;-66
2021/10/21 04:46:21;;;;;;;25.33;19.13;;;;;;;;;;770709;179;919102;-65
2021/10/21 04:48:47;;;;;;;28.37;21.27;;;;;;;;;;768737;182;918893;-65
2021/10/21 04:51:12;;;;;;;27.50;19.27;;;;;;;;;;768528;182;919055;-65
2021/10/21 04:53:38;;;;;;;25.83;19.50;;;;;;;;;;771413;182;919340;-67
2021/10/21 04:56:04;;;;;;;23.00;18.33;;;;;;;;;;777489;182;616171;-65
2021/10/21 04:58:30;;;;;;;27.23;20.23;;;;;;;;;;769536;182;1021253;-65
2021/10/21 05:00:56;;;;;;;30.60;21.00;;;;;;;;;;768101;182;919402;-66
2021/10/21 05:03:22;;;;;;;35.83;19.47;;;;;;;;;;775136;182;919602;-65
2021/10/21 05:05:48;;;;;;;27.83;20.60;;;;;;;;;;768389;182;919461;-66
2021/10/21 05:08:13;;;;;;;26.10;19.30;;;;;;;;;;770660;182;918985;-66
2021/10/21 05:10:40;;;;;;;27.40;19.37;;;;;;;;;;772829;182;921954;-64
2021/10/21 05:13:06;;;;;;;26.03;19.07;;;;;;;;;;778807;179;613667;-65
2021/10/21 05:15:31;;;;;;;31.70;21.03;;;;;;;;;;769237;182;1007126;-66
2021/10/21 05:17:57;;;;;;;27.40;19.03;;;;;;;;;;768664;182;915672;-66
2021/10/21 05:20:23;;;;;;;24.07;18.70;;;;;;;;;;772222;182;915434;-66
2021/10/21 05:22:49;;;;;;;26.77;20.17;;;;;;;;;;765474;182;940283;-66
2021/10/21 05:25:15;;;;;;;27.77;20.53;;;;;;;;;;769308;182;918851;-65
2021/10/21 05:27:41;;;;;;;24.75;19.00;;;;;;;;;;774961;182;913092;-67
2021/10/21 05:30:07;;;;;;;27.10;19.57;;;;;;;;;;768589;182;918464;-66
2021/10/21 05:32:33;;;;;;;24.40;19.10;;;;;;;;;;767442;183;919091;-66
2021/10/21 05:34:59;;;;;;;25.27;18.77;;;;;;;;;;772293;182;919927;-66
2021/10/21 05:37:25;;;;;;;26.47;18.83;;;;;;;;;;769741;182;919547;-66
2021/10/21 05:39:50;;;;;;;28.87;20.30;;;;;;;;;;769038;182;919283;-66
2021/10/21 05:42:16;;;;;;;29.00;18.83;;;;;;;;;;764405;182;1170674;-66
2021/10/21 05:44:42;;;;;;;24.80;16.93;;;;;;;;;;774442;182;918447;-66
2021/10/21 05:47:08;;;;;;;29.00;19.00;;;;;;;;;;766721;182;919308;-67
2021/10/21 05:49:34;;;;;;;31.43;18.97;;;;;;;;;;767340;182;919063;-68
2021/10/21 05:52:00;;;;;;;26.83;18.77;;;;;;;;;;770151;182;922138;-67
2021/10/21 05:54:25;;;;;;;27.27;18.00;;;;;;;;;;764886;181;920800;-67
2021/10/21 05:56:51;;;;;;;27.80;18.60;;;;;;;;;;769974;182;920508;-65
2021/10/21 05:59:17;;;;;;;27.13;19.53;;;;;;;;;;774374;182;919873;-66
2021/10/21 06:01:43;;;;;;;30.60;21.48;;;;;;;;;;766379;182;919686;-65
2021/10/21 06:04:09;;;;;;;27.60;18.73;;;;;;;;;;766915;182;935866;-65
2021/10/21 06:06:37;;;;;;;27.70;19.83;;;;;;;;;;772243;182;918767;-66
2021/10/21 06:09:02;;;;;;;29.37;19.93;;;;;;;;;;764819;183;627253;-67
2021/10/21 06:11:26;;;;;;;29.50;20.37;;;;;;;;;;770258;182;917907;-66
2021/10/21 06:13:53;;;;;;;30.07;20.90;;;;;;;;;;773825;182;640326;-66
2021/10/21 06:16:18;;;;;;;27.27;18.20;;;;;;;;;;777652;182;618199;-67
2021/10/21 06:18:44;;;;;;;24.23;18.47;;;;;;;;;;772827;182;914316;-66
2021/10/21 06:21:12;;;;;;;31.20;20.03;;;;;;;;;;768250;182;919085;-65
2021/10/21 06:23:36;;;;;;;27.13;20.17;;;;;;;;;;775525;182;917620;-66
2021/10/21 06:26:02;;;;;;;23.27;17.87;;;;;;;;;;766374;182;922588;-66
2021/10/21 06:28:27;;;;;;;25.10;18.37;;;;;;;;;;764652;182;918557;-66
2021/10/21 06:30:54;;;;;;;23.58;17.05;;;;;;;;;;770007;182;917901;-66
2021/10/21 06:33:21;;;;;;;24.80;18.60;;;;;;;;;;774412;180;917833;-66
2021/10/21 06:35:46;;;;;;;26.80;18.70;;;;;;;;;;768253;182;915101;-66
2021/10/21 06:38:12;;;;;;;26.33;19.93;;;;;;;;;;764988;182;916730;-65
2021/10/21 06:40:38;;;;;;;25.53;18.20;;;;;;;;;;772210;182;920268;-66
2021/10/21 06:43:03;;;;;;;23.60;17.70;;;;;;;;;;765733;182;936109;-66
2021/10/21 06:45:29;;;;;;;25.90;18.63;;;;;;;;;;764910;182;916689;-67
2021/10/21 06:47:55;;;;;;;22.70;17.07;;;;;;;;;;773543;182;915426;-65
2021/10/21 06:50:21;;;;;;;22.67;17.57;;;;;;;;;;765015;182;977362;-67
2021/10/21 06:52:48;;;;;;;25.62;17.65;;;;;;;;;;765781;182;916743;-66
2021/10/21 06:55:14;;;;;;;22.80;17.60;;;;;;;;;;767969;182;915769;-65
2021/10/21 06:57:45;;;;;;;19.70;15.73;;;;;;;;;;762377;182;1035843;-66
2021/10/21 07:00:12;;;;;;;25.10;18.83;;;;;;;;;;765371;182;914678;-66
2021/10/21 07:02:38;;;;;;;25.12;18.10;;;;;;;;;;767117;182;919500;-66
2021/10/21 07:05:05;;;;;;;25.40;18.53;;;;;;;;;;771450;182;1119920;-66
2021/10/21 07:07:30;;;;;;;24.43;16.57;;;;;;;;;;771564;180;914619;-67
2021/10/21 07:09:58;;;;;;;25.83;16.23;;;;;;;;;;771705;181;917708;-66
2021/10/21 07:12:22;;;;;;;22.40;16.75;;;;;;;;;;771295;182;919598;-64
2021/10/21 07:14:48;;;;;;;24.13;16.33;;;;;;;;;;774587;180;919311;-65
2021/10/21 07:17:14;;;;;;;22.53;15.90;;;;;;;;;;769729;182;919204;-65
2021/10/21 07:19:40;;;;;;;25.27;16.30;;;;;;;;;;768830;182;920027;-65
2021/10/21 07:22:05;;;;;;;19.10;14.30;;;;;;;;;;774815;182;920305;-65
2021/10/21 07:24:31;;;;;;;22.67;15.67;;;;;;;;;;768447;182;919561;-65
2021/10/21 07:26:58;;;;;;;18.20;14.70;;;;;;;;;;767443;182;921025;-66
2021/10/21 07:29:23;;;;;;;17.90;12.97;;;;;;;;;;773004;182;919425;-66
2021/10/21 07:31:49;;;;;;;18.27;13.97;;;;;;;;;;769031;182;921514;-66
2021/10/21 07:34:15;;;;;;;19.33;13.87;;;;;;;;;;767644;182;919485;-67
2021/10/21 07:36:41;;;;;;;18.60;15.83;;;;;;;;;;773304;182;918229;-66
2021/10/21 07:39:06;;;;;;;17.98;12.98;;;;;;;;;;767058;182;920049;-65
2021/10/21 07:41:32;;;;;;;20.37;14.50;;;;;;;;;;768024;182;920662;-65
2021/10/21 07:43:58;;;;;;;18.67;14.73;;;;;;;;;;768841;182;916799;-65
2021/10/21 07:46:24;;;;;;;24.13;14.50;;;;;;;;;;768883;182;917340;-66
2021/10/21 07:48:50;;;;;;;32.17;16.53;;;;;;;;;;766969;182;916858;-65
2021/10/21 07:51:16;;;;;;;18.30;14.00;;;;;;;;;;765584;182;918855;-65
2021/10/21 07:53:42;;;;;;;18.87;13.30;;;;;;;;;;774191;182;911904;-65
2021/10/21 07:56:07;;;;;;;15.88;12.35;;;;;;;;;;764661;182;919045;-65
2021/10/21 07:58:33;;;;;;;15.23;12.20;;;;;;;;;;766503;182;919036;-66
2021/10/21 08:00:59;;;;;;;13.50;11.37;;;;;;;;;;774028;182;918208;-65
2021/10/21 08:03:25;;;;;;;12.97;10.43;;;;;;;;;;769369;182;921445;-66
2021/10/21 08:05:51;;;;;;;15.50;11.50;;;;;;;;;;766370;182;919675;-65
2021/10/21 08:08:17;;;;;;;16.10;12.83;;;;;;;;;;769398;182;924679;-65
2021/10/21 08:10:42;;;;;;;17.03;12.77;;;;;;;;;;771394;182;919073;-66
2021/10/21 08:13:10;;;;;;;15.90;11.37;;;;;;;;;;768701;182;919595;-65
2021/10/21 08:15:34;;;;;;;14.60;11.63;;;;;;;;;;767079;182;919966;-65
2021/10/21 08:18:00;;;;;;;18.43;12.03;;;;;;;;;;773853;180;919600;-66
2021/10/21 08:20:27;;;;;;;15.38;12.63;;;;;;;;;;767559;181;920795;-67
2021/10/21 08:22:52;;;;;;;16.13;12.20;;;;;;;;;;769511;182;919524;-66
2021/10/21 08:25:18;;;;;;;17.67;14.00;;;;;;;;;;776246;182;921591;-65
2021/10/21 08:27:44;;;;;;;18.20;11.63;;;;;;;;;;767801;182;916795;-66
2021/10/21 08:30:10;;;;;;;16.50;11.70;;;;;;;;;;768000;182;919709;-65
2021/10/21 08:32:36;;;;;;;16.30;12.23;;;;;;;;;;769075;181;952127;-66
2021/10/21 08:35:02;;;;;;;19.67;11.93;;;;;;;;;;764364;182;918399;-65
2021/10/21 08:37:28;;;;;;;17.80;11.67;;;;;;;;;;769604;182;918443;-66
2021/10/21 08:39:55;;;;;;;13.35;10.60;;;;;;;;;;761806;182;997569;-68
2021/10/21 08:42:20;;;;;;;15.50;11.90;;;;;;;;;;771574;182;919119;-65
2021/10/21 08:44:46;;;;;;;17.53;11.47;;;;;;;;;;764568;182;919835;-65
2021/10/21 08:47:12;;;;;;;15.68;11.10;;;;;;;;;;767857;182;920347;-65
2021/10/21 08:49:38;;;;;;;14.90;10.90;;;;;;;;;;771823;182;919252;-66
2021/10/21 08:52:04;;;;;;;15.18;11.43;;;;;;;;;;767733;182;944838;-65
2021/10/21 08:54:30;;;;;;;16.55;13.45;;;;;;;;;;768357;182;918868;-67
2021/10/21 08:56:56;;;;;;;17.57;12.03;;;;;;;;;;772757;182;919768;-65
2021/10/21 08:59:23;;;;;;;15.87;12.13;;;;;;;;;;770898;183;919262;-66
2021/10/21 09:02:01;;;;;;;13.20;10.63;;;;;;;;;;766324;182;920511;-69
2021/10/21 09:04:29;;;;;;;20.03;17.47;;;;;;;;;;764266;182;919939;-66
2021/10/21 09:09:45;;;;;;;23.03;16.30;;;;;;;;;;764464;182;919243;-66
2021/10/21 09:12:12;;;;;;;25.30;17.60;;;;;;;;;;769765;182;916974;-65
2021/10/21 09:14:40;;;;;;;24.50;16.47;;;;;;;;;;755314;183;916145;-65
2021/10/21 09:17:07;;;;;;;25.03;19.80;;;;;;;;;;765834;182;915944;-65
2021/10/21 09:19:32;;;;;;;23.27;18.07;;;;;;;;;;768762;182;916282;-65
2021/10/21 09:21:57;;;;;;;21.83;17.73;;;;;;;;;;770523;182;915342;-65
2021/10/21 09:24:24;;;;;;;23.23;18.23;;;;;;;;;;768702;182;919757;-65
2021/10/21 09:26:56;;;;;;;24.07;16.97;;;;;;;;;;764918;182;918743;-64
2021/10/21 09:29:22;;;;;;;23.23;17.10;;;;;;;;;;773857;181;919291;-65
2021/10/21 09:31:48;;;;;;;25.37;20.23;;;;;;;;;;767043;181;918649;-66
2021/10/21 09:34:13;;;;;;;26.45;18.15;;;;;;;;;;765424;181;919263;-65
2021/10/21 09:36:39;;;;;;;23.00;18.27;;;;;;;;;;769460;182;919735;-65
2021/10/21 09:39:06;;;;;;;25.65;18.58;;;;;;;;;;773612;182;918954;-69
2021/10/21 09:41:33;;;;;;;20.60;17.60;;;;;;;;;;769197;182;918394;-65
2021/10/21 09:43:57;;;;;;;25.00;18.57;;;;;;;;;;771355;182;920095;-65
2021/10/21 09:46:30;;;;;;;25.93;19.10;;;;;;;;;;773703;182;921771;-66
2021/10/21 09:49:12;;;;;;;24.13;18.93;;;;;;;;;;767946;182;921619;-66
2021/10/21 09:51:38;;;;;;;28.57;18.13;;;;;;;;;;764574;180;923413;-66
2021/10/21 09:54:04;;;;;;;25.20;20.97;;;;;;;;;;761784;182;1098578;-67
2021/10/21 09:56:30;;;;;;;22.33;18.40;;;;;;;;;;770265;182;918488;-64
2021/10/21 09:58:55;;;;;;;32.13;22.27;;;;;;;;;;772216;182;918873;-64
2021/10/21 10:01:21;;;;;;;25.03;18.30;;;;;;;;;;764350;182;919604;-65
2021/10/21 10:03:47;;;;;;;25.27;18.67;;;;;;;;;;766709;182;921296;-65
2021/10/21 10:06:14;;;;;;;24.00;18.30;;;;;;;;;;771482;182;918393;-66
2021/10/21 10:08:39;;;;;;;26.77;20.10;;;;;;;;;;771051;182;916137;-66
2021/10/21 10:11:08;;;;;;;26.52;19.80;;;;;;;;;;769287;182;943459;-66
2021/10/21 10:13:31;;;;;;;26.23;19.43;;;;;;;;;;774461;182;921209;-65
2021/10/21 10:15:57;;;;;;;27.90;18.70;;;;;;;;;;768758;182;920357;-66
2021/10/21 10:18:24;;;;;;;25.03;18.50;;;;;;;;;;768589;182;921220;-65
2021/10/21 10:20:52;;;;;;;35.93;20.30;;;;;;;;;;769980;182;901473;-66
2021/10/21 10:23:16;;;;;;;32.43;19.63;;;;;;;;;;769465;182;618108;-66
2021/10/21 10:25:43;;;;;;;29.00;20.50;;;;;;;;;;768083;182;915528;-66
2021/10/21 10:28:09;;;;;;;26.93;17.33;;;;;;;;;;767680;182;914426;-66
2021/10/21 10:30:57;;;;;;;22.90;17.37;;;;;;;;;;773775;182;915995;-66
2021/10/21 10:33:39;;;;;;;20.23;16.23;;;;;;;;;;771010;182;888921;-66
2021/10/21 10:36:09;;;;;;;20.80;16.10;;;;;;;;;;772839;182;919596;-66
2021/10/21 10:38:36;;;;;;;19.00;12.50;;;;;;;;;;773499;182;788009;-64
2021/10/21 10:41:01;;;;;;;12.60;11.30;;;;;;;;;;771400;180;633477;-65
2021/10/21 10:43:43;;;;;;;19.17;10.47;;;;;;;;;;770697;181;919015;-64
2021/10/21 10:46:10;;;;;;;12.73;9.77;;;;;;;;;;772666;182;631203;-65
2021/10/21 10:48:41;;;;;;;14.17;10.30;;;;;;;;;;776329;182;612725;-66
2021/10/21 10:51:07;;;;;;;11.53;10.20;;;;;;;;;;769947;182;917522;-65
2021/10/21 10:53:39;;;;;;;10.77;9.10;;;;;;;;;;772287;182;772446;-65
2021/10/21 10:56:05;;;;;;;9.93;8.63;;;;;;;;;;774944;182;631029;-66
2021/10/21 10:58:31;;;;;;;10.33;8.43;;;;;;;;;;775167;182;914676;-66
2021/10/21 11:00:58;;;;;;;12.87;8.30;;;;;;;;;;767730;182;875917;-65
2021/10/21 11:03:29;;;;;;;8.60;7.40;;;;;;;;;;769151;182;915898;-66
2021/10/21 11:05:54;;;;;;;9.97;7.37;;;;;;;;;;772033;182;623714;-65
2021/10/21 11:08:20;;;;;;;11.93;8.67;;;;;;;;;;770779;182;892337;-66
2021/10/21 11:10:46;;;;;;;13.50;8.07;;;;;;;;;;768558;182;917061;-64
2021/10/21 11:13:17;;;;;;;12.33;8.47;;;;;;;;;;765468;182;920772;-65
2021/10/21 11:15:43;;;;;;;11.73;7.60;;;;;;;;;;774768;182;919344;-65
2021/10/21 11:18:09;;;;;;;9.70;6.30;;;;;;;;;;764975;182;943394;-66
2021/10/21 11:20:38;;;;;;;12.87;7.53;;;;;;;;;;767557;182;919775;-65
2021/10/21 11:23:03;;;;;;;9.10;7.50;;;;;;;;;;769264;182;920210;-64
2021/10/21 11:25:29;;;;;;;10.80;6.83;;;;;;;;;;773251;182;919640;-64
2021/10/21 11:27:55;;;;;;;7.50;5.00;;;;;;;;;;764403;182;918989;-65
2021/10/21 11:30:23;;;;;;;9.60;5.25;;;;;;;;;;764079;182;919094;-65
2021/10/21 11:32:47;;;;;;;6.43;4.50;;;;;;;;;;770054;182;919257;-65
2021/10/21 11:35:13;;;;;;;9.37;5.57;;;;;;;;;;768304;182;919271;-65
2021/10/21 11:37:43;;;;;;;4.90;4.07;;;;;;;;;;766515;182;926426;-65
2021/10/21 11:40:09;;;;;;;7.43;5.10;;;;;;;;;;766960;182;919392;-66
2021/10/21 11:42:35;;;;;;;6.77;4.70;;;;;;;;;;769852;183;616474;-65
2021/10/21 11:45:02;;;;;;;7.90;5.50;;;;;;;;;;765280;182;919427;-66
2021/10/21 11:47:28;;;;;;;8.27;5.80;;;;;;;;;;769648;182;614209;-66
2021/10/21 11:49:53;;;;;;;8.50;5.40;;;;;;;;;;775012;182;636454;-65
2021/10/21 11:52:19;;;;;;;7.33;5.17;;;;;;;;;;773176;180;633393;-70
2021/10/21 11:54:46;;;;;;;9.73;6.00;;;;;;;;;;771492;181;628574;-69
2021/10/21 11:57:11;;;;;;;8.07;4.67;;;;;;;;;;777143;181;636432;-68
2021/10/21 11:59:39;;;;;;;6.10;4.63;;;;;;;;;;773094;182;655485;-70
2021/10/21 12:02:13;;;;;;;6.70;5.63;;;;;;;;;;771100;182;919868;-69
2021/10/21 12:04:38;;;;;;;8.35;6.00;;;;;;;;;;768398;182;920484;-66
2021/10/21 12:07:04;;;;;;;7.93;5.50;;;;;;;;;;772918;182;919061;-68
2021/10/21 12:09:31;;;;;;;11.90;5.40;;;;;;;;;;756722;183;950057;-66
2021/10/21 12:12:01;;;;;;;7.62;4.97;;;;;;;;;;768829;182;1021068;-67
2021/10/21 12:14:27;;;;;;;6.87;5.27;;;;;;;;;;774319;182;628373;-67
2021/10/21 12:16:53;;;;;;;5.77;4.83;;;;;;;;;;774588;182;619810;-67
2021/10/21 12:19:19;;;;;;;7.30;5.03;;;;;;;;;;768402;182;916022;-67
2021/10/21 12:21:45;;;;;;;8.20;5.50;;;;;;;;;;768935;182;915402;-66
2021/10/21 12:24:10;;;;;;;7.20;5.23;;;;;;;;;;767916;182;915642;-66
2021/10/21 12:26:36;;;;;;;8.03;5.47;;;;;;;;;;768494;182;919284;-66
2021/10/21 12:29:02;;;;;;;7.67;5.83;;;;;;;;;;769475;182;918992;-67
2021/10/21 12:31:28;;;;;;;8.60;5.63;;;;;;;;;;775590;182;622224;-67
2021/10/21 12:33:55;;;;;;;8.00;5.70;;;;;;;;;;770941;182;900847;-66
2021/10/21 12:36:20;;;;;;;13.63;6.53;;;;;;;;;;765812;182;919186;-66
2021/10/21 12:38:49;;;;;;;10.37;6.40;;;;;;;;;;767233;182;919590;-67
2021/10/21 12:41:11;;;;;;;11.60;6.00;;;;;;;;;;774968;179;917485;-67
2021/10/21 12:43:37;;;;;;;7.83;5.83;;;;;;;;;;766788;182;919533;-67
2021/10/21 12:46:04;;;;;;;17.03;6.30;;;;;;;;;;767423;181;919326;-67
2021/10/21 12:48:29;;;;;;;8.93;6.20;;;;;;;;;;770603;182;922072;-67
2021/10/21 12:51:10;;;;;;;7.40;5.63;;;;;;;;;;767028;182;919307;-68
2021/10/21 12:53:35;;;;;;;8.80;6.17;;;;;;;;;;766864;182;919339;-66
2021/10/21 12:56:23;;;;;;;6.80;5.60;;;;;;;;;;770688;182;830409;-66
2021/10/21 12:58:48;;;;;;;9.05;6.30;;;;;;;;;;771069;182;917450;-68
2021/10/21 13:01:14;;;;;;;7.90;6.37;;;;;;;;;;773515;182;815796;-67
2021/10/21 13:03:43;;;;;;;19.53;6.10;;;;;;;;;;769735;180;919809;-67
2021/10/21 13:06:07;;;;;;;12.20;6.70;;;;;;;;;;771316;181;964227;-66
2021/10/21 13:08:33;;;;;;;8.45;6.37;;;;;;;;;;769095;182;918751;-66
2021/10/21 13:11:01;;;;;;;8.30;6.33;;;;;;;;;;772809;182;920446;-67
2021/10/21 13:13:25;;;;;;;11.87;6.30;;;;;;;;;;769983;182;918544;-66
2021/10/21 13:15:51;;;;;;;11.83;6.90;;;;;;;;;;768684;182;919001;-67
2021/10/21 13:18:19;;;;;;;10.10;6.90;;;;;;;;;;774166;182;918947;-66
2021/10/21 13:20:43;;;;;;;9.47;5.97;;;;;;;;;;769750;182;918687;-66
2021/10/21 13:23:10;;;;;;;12.20;5.90;;;;;;;;;;771058;182;916408;-67
2021/10/21 13:25:34;;;;;;;10.13;6.83;;;;;;;;;;772965;182;920515;-66
2021/10/21 13:28:01;;;;;;;12.50;6.37;;;;;;;;;;767683;182;919263;-67
2021/10/21 13:30:26;;;;;;;8.17;5.77;;;;;;;;;;768474;182;919480;-66
2021/10/21 13:32:52;;;;;;;11.43;6.40;;;;;;;;;;768236;182;924434;-66
2021/10/21 13:35:19;;;;;;;10.57;6.97;;;;;;;;;;773196;182;924117;-67
2021/10/21 13:37:45;;;;;;;16.63;6.33;;;;;;;;;;768356;182;919188;-66
2021/10/21 13:40:10;;;;;;;13.53;7.00;;;;;;;;;;767671;182;919180;-66
2021/10/21 13:42:36;;;;;;;8.23;7.07;;;;;;;;;;773269;182;919110;-66
2021/10/21 13:45:02;;;;;;;13.23;6.90;;;;;;;;;;767511;182;918388;-66
2021/10/21 13:47:28;;;;;;;10.47;6.83;;;;;;;;;;766920;182;919378;-66
2021/10/21 13:49:53;;;;;;;8.40;7.13;;;;;;;;;;771842;182;919401;-67
2021/10/21 13:52:19;;;;;;;12.30;7.17;;;;;;;;;;767887;182;928471;-70
2021/10/21 13:54:45;;;;;;;14.50;7.87;;;;;;;;;;769373;182;919822;-67
2021/10/21 13:57:15;;;;;;;20.73;7.93;;;;;;;;;;766813;182;919055;-67
2021/10/21 13:59:37;;;;;;;13.50;7.70;;;;;;;;;;767271;182;919068;-68
2021/10/21 14:02:03;;;;;;;11.00;6.20;;;;;;;;;;767476;182;919775;-67
2021/10/21 14:04:29;;;;;;;9.80;7.40;;;;;;;;;;765604;182;920168;-67
2021/10/21 14:06:54;;;;;;;10.03;6.10;;;;;;;;;;774264;182;918748;-67